Aérodrome :
LOGIN :

S'inscrire | Disclaimer

   EN    FR    IT 

 










Légende :    VFR   VFR Marginal   IFR   IFR Intensif   IFR Très Intensif
Visi : 
Plafond : 
>= 8 km
>= 3000ft
5 à 8 km
1000 à 3000 ft
1500m à 5 km
500 à 1000 ft
800 à 1500m
200 à 500 ft
< 800m
< 200 ft
Symboles :   Orages  Brouillard  Fortes neiges  Fortes précipitations  Vent > 20 kt
SIGMETs :   Divers  Orages  Givrage  Turbulence  Onde Orograph.  Cendres Volcan.






- Altitude de l'aérodrome : 36 ft
- Code IATA : RIX


EVRA - Riga

DERNIER METAR :
  • 040950Z 27007KT 200V320 9999 FEW045CB 07/M06 Q1017 NOSIG

METARs EXPIRÉS :
  • 040920Z 25006KT 200V330 9999 FEW038 07/M03 Q1017 NOSIG
  • 040850Z 29006KT 190V340 9999 SCT041 07/M01 Q1016 NOSIG
  • 040820Z 22007KT 190V280 CAVOK 07/M02 Q1016 NOSIG
  • 040750Z 22006KT 190V260 9999 FEW040 05/M01 Q1016 NOSIG
  • 040720Z 23004KT 140V300 9999 FEW030 05/M01 Q1015 NOSIG

TAF TAF EVRA
Valide du 04 à 09h jusqu'au 05 à 09h UTC


040800Z 0409/0509 25007KT 9999 SCT045
TEMPO 0409/0415 27012G28KT SCT020CB BKN035



MET'MAP, la Météo Aéronautique d'un coup d'oeil ! - Copyright ORBIFLY Décembre 2007 - Disclaimer

ORBIFLY MET'MAP TEAM :

Programmation & Développement : Alexandra Zaïnal
Sur une idée originale de : Baudouin d'Aumeries
Assistance à la programmation : Marc-Olivier Méhu
Soutien technique & logistique : Manuel Goepfert

Contact : metmap@orbifly.com




SOURCES & CREDITS :

   NOAA